Rio Tercero, Argentina
Current Conditions -  °F | °C
As of 1:00 PM on Saturday 25 Oct 2014 (Local Time) from SACO Reporting Station
Scattered Clouds Scattered Clouds  
Wind Chill: 90°   Ceiling: Unl
Heat Index: 90°   Visibility: 6mi
Dew Point: 55°   Wind: 18mph
Humidity: 31%   Direction: 50°NE
Pressure: 29.94"   Gusts: NA
Location:  32.18°S, 64.12°W
Report Text: SACO 251600Z 05016KT 9999 FEW025 SCT200 32/13 Q1014
Loading
Personal Weather Stations






























Interactive Weather Map New forecast layout! Learn more

10-Day Weather Forecast

Advertisements
Track Severe Weather on mobile